sensor_id;sensor_type;location;lat;lon;timestamp;P1;durP1;ratioP1;P2;durP2;ratioP2
47659;SDS011;33403;43.608;1.458;2023-02-20T00:01:03;18.83;;;14.70;;
47659;SDS011;33403;43.608;1.458;2023-02-20T00:03:29;20.20;;;14.55;;
47659;SDS011;33403;43.608;1.458;2023-02-20T00:05:55;22.40;;;15.33;;
47659;SDS011;33403;43.608;1.458;2023-02-20T00:08:22;19.93;;;14.77;;
47659;SDS011;33403;43.608;1.458;2023-02-20T00:10:48;21.60;;;15.80;;
47659;SDS011;33403;43.608;1.458;2023-02-20T00:13:14;20.77;;;16.03;;
47659;SDS011;33403;43.608;1.458;2023-02-20T00:15:40;27.53;;;18.20;;
47659;SDS011;33403;43.608;1.458;2023-02-20T00:18:06;28.37;;;19.03;;
47659;SDS011;33403;43.608;1.458;2023-02-20T00:20:32;31.27;;;21.10;;
47659;SDS011;33403;43.608;1.458;2023-02-20T00:23:00;31.17;;;21.80;;
47659;SDS011;33403;43.608;1.458;2023-02-20T00:25:26;30.97;;;22.40;;
47659;SDS011;33403;43.608;1.458;2023-02-20T00:27:52;32.90;;;22.73;;
47659;SDS011;33403;43.608;1.458;2023-02-20T00:30:19;33.77;;;22.03;;
47659;SDS011;33403;43.608;1.458;2023-02-20T00:32:46;31.77;;;21.60;;
47659;SDS011;33403;43.608;1.458;2023-02-20T00:35:12;29.83;;;21.93;;
47659;SDS011;33403;43.608;1.458;2023-02-20T00:37:39;31.93;;;21.47;;
47659;SDS011;33403;43.608;1.458;2023-02-20T00:40:05;29.75;;;20.58;;
47659;SDS011;33403;43.608;1.458;2023-02-20T00:42:31;31.23;;;21.87;;
47659;SDS011;33403;43.608;1.458;2023-02-20T00:44:57;31.73;;;21.93;;
47659;SDS011;33403;43.608;1.458;2023-02-20T00:47:23;32.45;;;21.60;;
47659;SDS011;33403;43.608;1.458;2023-02-20T00:49:49;30.80;;;21.87;;
47659;SDS011;33403;43.608;1.458;2023-02-20T00:52:15;32.88;;;21.55;;
47659;SDS011;33403;43.608;1.458;2023-02-20T00:54:43;31.10;;;21.50;;
47659;SDS011;33403;43.608;1.458;2023-02-20T00:57:09;32.00;;;21.50;;
47659;SDS011;33403;43.608;1.458;2023-02-20T00:59:35;30.13;;;21.77;;
47659;SDS011;33403;43.608;1.458;2023-02-20T01:02:01;34.07;;;22.13;;
47659;SDS011;33403;43.608;1.458;2023-02-20T01:04:27;31.47;;;21.63;;
47659;SDS011;33403;43.608;1.458;2023-02-20T01:06:53;29.55;;;21.25;;
47659;SDS011;33403;43.608;1.458;2023-02-20T01:09:19;33.10;;;22.40;;
47659;SDS011;33403;43.608;1.458;2023-02-20T01:11:45;32.00;;;21.88;;
47659;SDS011;33403;43.608;1.458;2023-02-20T01:14:11;31.57;;;23.00;;
47659;SDS011;33403;43.608;1.458;2023-02-20T01:16:47;29.83;;;21.50;;
47659;SDS011;33403;43.608;1.458;2023-02-20T01:19:15;30.40;;;21.77;;
47659;SDS011;33403;43.608;1.458;2023-02-20T01:21:41;27.83;;;20.43;;
47659;SDS011;33403;43.608;1.458;2023-02-20T01:24:07;32.17;;;21.67;;
47659;SDS011;33403;43.608;1.458;2023-02-20T01:26:34;29.13;;;20.63;;
47659;SDS011;33403;43.608;1.458;2023-02-20T01:29:03;30.07;;;21.60;;
47659;SDS011;33403;43.608;1.458;2023-02-20T01:31:29;30.30;;;21.00;;
47659;SDS011;33403;43.608;1.458;2023-02-20T01:33:55;29.70;;;21.67;;
47659;SDS011;33403;43.608;1.458;2023-02-20T01:36:21;30.20;;;21.73;;
47659;SDS011;33403;43.608;1.458;2023-02-20T01:38:47;28.23;;;21.37;;
47659;SDS011;33403;43.608;1.458;2023-02-20T01:41:15;34.13;;;21.33;;
47659;SDS011;33403;43.608;1.458;2023-02-20T01:43:41;31.80;;;21.60;;
47659;SDS011;33403;43.608;1.458;2023-02-20T01:48:53;29.87;;;20.60;;
47659;SDS011;33403;43.608;1.458;2023-02-20T01:51:22;29.63;;;21.47;;
47659;SDS011;33403;43.608;1.458;2023-02-20T01:53:48;29.00;;;20.97;;
47659;SDS011;33403;43.608;1.458;2023-02-20T01:56:14;27.27;;;19.90;;
47659;SDS011;33403;43.608;1.458;2023-02-20T01:58:42;26.90;;;19.67;;
47659;SDS011;33403;43.608;1.458;2023-02-20T02:01:10;29.37;;;20.13;;
47659;SDS011;33403;43.608;1.458;2023-02-20T02:03:37;27.60;;;19.47;;
47659;SDS011;33403;43.608;1.458;2023-02-20T02:06:05;25.20;;;18.57;;
47659;SDS011;33403;43.608;1.458;2023-02-20T02:08:32;26.50;;;18.90;;
47659;SDS011;33403;43.608;1.458;2023-02-20T02:11:00;26.97;;;19.03;;
47659;SDS011;33403;43.608;1.458;2023-02-20T02:13:28;25.60;;;18.87;;
47659;SDS011;33403;43.608;1.458;2023-02-20T02:16:05;26.57;;;20.07;;
47659;SDS011;33403;43.608;1.458;2023-02-20T02:25:55;25.53;;;18.20;;
47659;SDS011;33403;43.608;1.458;2023-02-20T02:31:13;25.10;;;17.57;;
47659;SDS011;33403;43.608;1.458;2023-02-20T02:46:44;24.33;;;17.13;;
47659;SDS011;33403;43.608;1.458;2023-02-20T02:49:20;26.80;;;18.37;;
47659;SDS011;33403;43.608;1.458;2023-02-20T02:51:49;24.57;;;17.47;;
47659;SDS011;33403;43.608;1.458;2023-02-20T02:54:18;24.03;;;17.63;;
47659;SDS011;33403;43.608;1.458;2023-02-20T02:56:50;23.03;;;17.50;;
47659;SDS011;33403;43.608;1.458;2023-02-20T02:59:19;26.80;;;17.43;;
47659;SDS011;33403;43.608;1.458;2023-02-20T03:01:48;22.63;;;16.80;;
47659;SDS011;33403;43.608;1.458;2023-02-20T03:04:15;25.53;;;17.47;;
47659;SDS011;33403;43.608;1.458;2023-02-20T03:06:47;23.50;;;17.47;;
47659;SDS011;33403;43.608;1.458;2023-02-20T03:09:19;24.30;;;17.70;;
47659;SDS011;33403;43.608;1.458;2023-02-20T03:11:49;23.33;;;16.97;;
47659;SDS011;33403;43.608;1.458;2023-02-20T03:14:17;24.23;;;16.97;;
47659;SDS011;33403;43.608;1.458;2023-02-20T03:19:38;22.13;;;16.70;;
47659;SDS011;33403;43.608;1.458;2023-02-20T03:22:08;24.00;;;17.30;;
47659;SDS011;33403;43.608;1.458;2023-02-20T03:24:36;22.10;;;16.47;;
47659;SDS011;33403;43.608;1.458;2023-02-20T03:28:05;24.67;;;17.53;;
47659;SDS011;33403;43.608;1.458;2023-02-20T03:32:55;23.63;;;16.80;;
47659;SDS011;33403;43.608;1.458;2023-02-20T03:35:42;24.33;;;17.10;;
47659;SDS011;33403;43.608;1.458;2023-02-20T03:38:27;24.10;;;17.73;;
47659;SDS011;33403;43.608;1.458;2023-02-20T03:41:13;22.73;;;17.33;;
47659;SDS011;33403;43.608;1.458;2023-02-20T03:43:58;25.33;;;17.17;;
47659;SDS011;33403;43.608;1.458;2023-02-20T03:46:25;24.83;;;16.73;;
47659;SDS011;33403;43.608;1.458;2023-02-20T03:49:05;23.57;;;17.27;;
47659;SDS011;33403;43.608;1.458;2023-02-20T03:51:35;23.43;;;17.17;;
47659;SDS011;33403;43.608;1.458;2023-02-20T03:54:01;23.47;;;17.23;;
47659;SDS011;33403;43.608;1.458;2023-02-20T03:56:31;24.90;;;17.67;;
47659;SDS011;33403;43.608;1.458;2023-02-20T03:59:05;27.73;;;17.90;;
47659;SDS011;33403;43.608;1.458;2023-02-20T04:01:32;26.53;;;18.57;;
47659;SDS011;33403;43.608;1.458;2023-02-20T04:03:59;24.27;;;17.63;;
47659;SDS011;33403;43.608;1.458;2023-02-20T04:06:26;29.20;;;18.23;;
47659;SDS011;33403;43.608;1.458;2023-02-20T04:09:01;25.23;;;17.70;;
47659;SDS011;33403;43.608;1.458;2023-02-20T04:11:33;23.73;;;17.43;;
47659;SDS011;33403;43.608;1.458;2023-02-20T04:14:01;24.97;;;17.20;;
47659;SDS011;33403;43.608;1.458;2023-02-20T04:16:28;23.50;;;17.30;;
47659;SDS011;33403;43.608;1.458;2023-02-20T04:18:55;24.47;;;17.47;;
47659;SDS011;33403;43.608;1.458;2023-02-20T04:22:08;25.87;;;18.13;;
47659;SDS011;33403;43.608;1.458;2023-02-20T04:24:09;28.13;;;18.43;;
47659;SDS011;33403;43.608;1.458;2023-02-20T04:26:35;28.03;;;18.67;;
47659;SDS011;33403;43.608;1.458;2023-02-20T04:29:02;24.47;;;17.83;;
47659;SDS011;33403;43.608;1.458;2023-02-20T04:31:28;24.63;;;17.90;;
47659;SDS011;33403;43.608;1.458;2023-02-20T04:33:54;25.77;;;18.63;;
47659;SDS011;33403;43.608;1.458;2023-02-20T04:36:20;24.20;;;18.20;;
47659;SDS011;33403;43.608;1.458;2023-02-20T04:38:46;25.43;;;18.83;;
47659;SDS011;33403;43.608;1.458;2023-02-20T04:41:12;27.27;;;18.60;;
47659;SDS011;33403;43.608;1.458;2023-02-20T04:43:38;28.97;;;19.17;;
47659;SDS011;33403;43.608;1.458;2023-02-20T04:46:04;28.10;;;18.67;;
47659;SDS011;33403;43.608;1.458;2023-02-20T04:48:30;27.70;;;18.37;;
47659;SDS011;33403;43.608;1.458;2023-02-20T04:50:56;27.13;;;19.50;;
47659;SDS011;33403;43.608;1.458;2023-02-20T04:53:22;30.30;;;19.40;;
47659;SDS011;33403;43.608;1.458;2023-02-20T04:55:48;28.33;;;19.20;;
47659;SDS011;33403;43.608;1.458;2023-02-20T04:58:14;28.53;;;19.77;;
47659;SDS011;33403;43.608;1.458;2023-02-20T05:00:41;28.47;;;20.17;;
47659;SDS011;33403;43.608;1.458;2023-02-20T05:03:07;33.13;;;20.50;;
47659;SDS011;33403;43.608;1.458;2023-02-20T05:05:33;29.43;;;20.00;;
47659;SDS011;33403;43.608;1.458;2023-02-20T05:08:03;27.83;;;19.40;;
47659;SDS011;33403;43.608;1.458;2023-02-20T05:10:30;27.13;;;19.00;;
47659;SDS011;33403;43.608;1.458;2023-02-20T05:12:56;27.90;;;18.37;;
47659;SDS011;33403;43.608;1.458;2023-02-20T05:15:23;28.53;;;18.60;;
47659;SDS011;33403;43.608;1.458;2023-02-20T05:17:49;29.70;;;19.20;;
47659;SDS011;33403;43.608;1.458;2023-02-20T05:20:17;27.10;;;18.43;;
47659;SDS011;33403;43.608;1.458;2023-02-20T05:22:46;27.97;;;18.93;;
47659;SDS011;33403;43.608;1.458;2023-02-20T05:25:13;27.73;;;18.57;;
47659;SDS011;33403;43.608;1.458;2023-02-20T05:27:39;28.47;;;19.07;;
47659;SDS011;33403;43.608;1.458;2023-02-20T05:30:06;27.07;;;18.87;;
47659;SDS011;33403;43.608;1.458;2023-02-20T05:32:34;28.40;;;19.47;;
47659;SDS011;33403;43.608;1.458;2023-02-20T05:35:00;29.57;;;19.67;;
47659;SDS011;33403;43.608;1.458;2023-02-20T05:37:26;29.90;;;20.53;;
47659;SDS011;33403;43.608;1.458;2023-02-20T05:39:52;28.20;;;19.20;;
47659;SDS011;33403;43.608;1.458;2023-02-20T05:42:19;28.07;;;19.70;;
47659;SDS011;33403;43.608;1.458;2023-02-20T05:44:47;30.20;;;20.47;;
47659;SDS011;33403;43.608;1.458;2023-02-20T05:47:13;27.87;;;19.80;;
47659;SDS011;33403;43.608;1.458;2023-02-20T05:49:39;27.60;;;19.77;;
47659;SDS011;33403;43.608;1.458;2023-02-20T05:52:05;28.90;;;20.47;;
47659;SDS011;33403;43.608;1.458;2023-02-20T05:54:35;25.57;;;19.23;;
47659;SDS011;33403;43.608;1.458;2023-02-20T05:57:01;25.23;;;19.50;;
47659;SDS011;33403;43.608;1.458;2023-02-20T05:59:28;25.53;;;19.43;;
47659;SDS011;33403;43.608;1.458;2023-02-20T06:01:57;26.53;;;18.63;;
47659;SDS011;33403;43.608;1.458;2023-02-20T06:04:24;24.80;;;18.40;;
47659;SDS011;33403;43.608;1.458;2023-02-20T06:06:50;24.77;;;18.00;;
47659;SDS011;33403;43.608;1.458;2023-02-20T06:09:16;24.17;;;18.53;;
47659;SDS011;33403;43.608;1.458;2023-02-20T06:11:49;24.33;;;18.33;;
47659;SDS011;33403;43.608;1.458;2023-02-20T06:14:15;25.03;;;18.93;;
47659;SDS011;33403;43.608;1.458;2023-02-20T06:16:43;26.00;;;17.70;;
47659;SDS011;33403;43.608;1.458;2023-02-20T06:19:09;25.53;;;18.53;;
47659;SDS011;33403;43.608;1.458;2023-02-20T06:21:35;27.70;;;19.00;;
47659;SDS011;33403;43.608;1.458;2023-02-20T06:24:04;26.80;;;19.33;;
47659;SDS011;33403;43.608;1.458;2023-02-20T06:26:30;26.33;;;18.83;;
47659;SDS011;33403;43.608;1.458;2023-02-20T06:28:56;28.70;;;19.10;;
47659;SDS011;33403;43.608;1.458;2023-02-20T06:31:23;28.13;;;19.57;;
47659;SDS011;33403;43.608;1.458;2023-02-20T06:33:49;30.17;;;19.63;;
47659;SDS011;33403;43.608;1.458;2023-02-20T06:36:23;31.63;;;20.27;;
47659;SDS011;33403;43.608;1.458;2023-02-20T06:38:50;33.03;;;21.23;;
47659;SDS011;33403;43.608;1.458;2023-02-20T06:41:16;34.10;;;21.07;;
47659;SDS011;33403;43.608;1.458;2023-02-20T06:43:42;34.27;;;20.83;;
47659;SDS011;33403;43.608;1.458;2023-02-20T06:46:08;32.00;;;21.13;;
47659;SDS011;33403;43.608;1.458;2023-02-20T06:48:34;34.13;;;20.63;;
47659;SDS011;33403;43.608;1.458;2023-02-20T06:51:00;34.43;;;21.30;;
47659;SDS011;33403;43.608;1.458;2023-02-20T06:53:26;32.57;;;20.27;;
47659;SDS011;33403;43.608;1.458;2023-02-20T06:55:52;33.40;;;21.70;;
47659;SDS011;33403;43.608;1.458;2023-02-20T06:58:18;34.27;;;20.47;;
47659;SDS011;33403;43.608;1.458;2023-02-20T07:00:44;32.37;;;20.00;;
47659;SDS011;33403;43.608;1.458;2023-02-20T07:03:10;32.40;;;19.93;;
47659;SDS011;33403;43.608;1.458;2023-02-20T07:05:36;29.97;;;19.93;;
47659;SDS011;33403;43.608;1.458;2023-02-20T07:08:02;30.80;;;19.90;;
47659;SDS011;33403;43.608;1.458;2023-02-20T07:10:28;29.13;;;19.37;;
47659;SDS011;33403;43.608;1.458;2023-02-20T07:12:55;32.70;;;19.93;;
47659;SDS011;33403;43.608;1.458;2023-02-20T07:15:21;31.43;;;19.97;;
47659;SDS011;33403;43.608;1.458;2023-02-20T07:17:47;32.93;;;20.07;;
47659;SDS011;33403;43.608;1.458;2023-02-20T07:20:13;32.37;;;20.53;;
47659;SDS011;33403;43.608;1.458;2023-02-20T07:22:47;34.00;;;20.87;;
47659;SDS011;33403;43.608;1.458;2023-02-20T07:25:13;35.80;;;20.90;;
47659;SDS011;33403;43.608;1.458;2023-02-20T07:27:39;37.73;;;21.13;;
47659;SDS011;33403;43.608;1.458;2023-02-20T07:30:05;32.07;;;20.83;;
47659;SDS011;33403;43.608;1.458;2023-02-20T07:32:31;29.53;;;20.10;;
47659;SDS011;33403;43.608;1.458;2023-02-20T07:34:57;30.33;;;19.47;;
47659;SDS011;33403;43.608;1.458;2023-02-20T07:37:23;29.70;;;19.10;;
47659;SDS011;33403;43.608;1.458;2023-02-20T07:39:49;31.67;;;19.53;;
47659;SDS011;33403;43.608;1.458;2023-02-20T07:42:16;29.93;;;18.93;;
47659;SDS011;33403;43.608;1.458;2023-02-20T07:44:43;27.00;;;17.77;;
47659;SDS011;33403;43.608;1.458;2023-02-20T07:47:13;24.30;;;16.80;;
47659;SDS011;33403;43.608;1.458;2023-02-20T07:49:39;22.97;;;16.10;;
47659;SDS011;33403;43.608;1.458;2023-02-20T07:52:05;21.67;;;14.97;;
47659;SDS011;33403;43.608;1.458;2023-02-20T07:54:31;20.80;;;14.67;;
47659;SDS011;33403;43.608;1.458;2023-02-20T07:56:57;21.63;;;15.50;;
47659;SDS011;33403;43.608;1.458;2023-02-20T07:59:23;24.27;;;16.17;;
47659;SDS011;33403;43.608;1.458;2023-02-20T08:01:49;26.57;;;17.90;;
47659;SDS011;33403;43.608;1.458;2023-02-20T08:04:15;34.30;;;20.63;;
47659;SDS011;33403;43.608;1.458;2023-02-20T08:06:42;36.60;;;21.80;;
47659;SDS011;33403;43.608;1.458;2023-02-20T08:09:08;33.43;;;20.27;;
47659;SDS011;33403;43.608;1.458;2023-02-20T08:11:34;33.07;;;20.73;;
47659;SDS011;33403;43.608;1.458;2023-02-20T08:14:01;33.03;;;20.87;;
47659;SDS011;33403;43.608;1.458;2023-02-20T08:16:27;33.50;;;20.87;;
47659;SDS011;33403;43.608;1.458;2023-02-20T08:18:53;31.97;;;19.97;;
47659;SDS011;33403;43.608;1.458;2023-02-20T08:21:19;30.90;;;19.60;;
47659;SDS011;33403;43.608;1.458;2023-02-20T08:23:46;30.83;;;20.20;;
47659;SDS011;33403;43.608;1.458;2023-02-20T08:26:12;31.73;;;20.23;;
47659;SDS011;33403;43.608;1.458;2023-02-20T08:28:38;27.83;;;18.23;;
47659;SDS011;33403;43.608;1.458;2023-02-20T08:31:04;29.03;;;19.17;;
47659;SDS011;33403;43.608;1.458;2023-02-20T08:33:30;26.13;;;17.50;;
47659;SDS011;33403;43.608;1.458;2023-02-20T08:35:56;30.07;;;18.53;;
47659;SDS011;33403;43.608;1.458;2023-02-20T08:40:51;27.07;;;17.63;;
47659;SDS011;33403;43.608;1.458;2023-02-20T08:43:17;25.10;;;17.03;;
47659;SDS011;33403;43.608;1.458;2023-02-20T08:45:43;25.20;;;17.23;;
47659;SDS011;33403;43.608;1.458;2023-02-20T08:48:09;23.20;;;16.47;;
47659;SDS011;33403;43.608;1.458;2023-02-20T08:50:35;24.07;;;16.60;;
47659;SDS011;33403;43.608;1.458;2023-02-20T08:53:01;20.43;;;15.23;;
47659;SDS011;33403;43.608;1.458;2023-02-20T08:55:27;22.57;;;16.13;;
47659;SDS011;33403;43.608;1.458;2023-02-20T08:57:53;23.90;;;15.77;;
47659;SDS011;33403;43.608;1.458;2023-02-20T09:00:20;20.93;;;14.83;;
47659;SDS011;33403;43.608;1.458;2023-02-20T09:02:46;21.00;;;15.30;;
47659;SDS011;33403;43.608;1.458;2023-02-20T09:05:13;20.87;;;15.93;;
47659;SDS011;33403;43.608;1.458;2023-02-20T09:07:39;20.47;;;15.53;;
47659;SDS011;33403;43.608;1.458;2023-02-20T09:10:05;19.03;;;14.90;;
47659;SDS011;33403;43.608;1.458;2023-02-20T09:12:31;19.00;;;15.13;;
47659;SDS011;33403;43.608;1.458;2023-02-20T09:14:57;21.07;;;14.87;;
47659;SDS011;33403;43.608;1.458;2023-02-20T09:17:25;22.87;;;15.53;;
47659;SDS011;33403;43.608;1.458;2023-02-20T09:19:51;21.33;;;15.90;;
47659;SDS011;33403;43.608;1.458;2023-02-20T09:22:23;20.20;;;15.80;;
47659;SDS011;33403;43.608;1.458;2023-02-20T09:24:50;19.60;;;15.60;;
47659;SDS011;33403;43.608;1.458;2023-02-20T09:27:16;21.30;;;15.70;;
47659;SDS011;33403;43.608;1.458;2023-02-20T09:29:42;21.57;;;15.87;;
47659;SDS011;33403;43.608;1.458;2023-02-20T09:32:08;21.20;;;16.17;;
47659;SDS011;33403;43.608;1.458;2023-02-20T09:34:34;21.00;;;15.87;;
47659;SDS011;33403;43.608;1.458;2023-02-20T09:37:00;22.53;;;16.00;;
47659;SDS011;33403;43.608;1.458;2023-02-20T09:39:26;22.40;;;16.43;;
47659;SDS011;33403;43.608;1.458;2023-02-20T09:42:16;20.60;;;16.17;;
47659;SDS011;33403;43.608;1.458;2023-02-20T09:47:48;29.70;;;17.73;;
47659;SDS011;33403;43.608;1.458;2023-02-20T09:51:02;26.93;;;17.53;;
47659;SDS011;33403;43.608;1.458;2023-02-20T09:55:48;26.63;;;16.83;;
47659;SDS011;33403;43.608;1.458;2023-02-20T09:58:28;23.63;;;17.37;;
47659;SDS011;33403;43.608;1.458;2023-02-20T10:01:00;67.20;;;19.73;;
47659;SDS011;33403;43.608;1.458;2023-02-20T10:03:38;28.43;;;18.80;;
47659;SDS011;33403;43.608;1.458;2023-02-20T10:06:15;31.87;;;18.30;;
47659;SDS011;33403;43.608;1.458;2023-02-20T10:08:42;27.40;;;19.00;;
47659;SDS011;33403;43.608;1.458;2023-02-20T10:11:09;29.50;;;18.13;;
47659;SDS011;33403;43.608;1.458;2023-02-20T10:16:19;27.73;;;18.33;;
47659;SDS011;33403;43.608;1.458;2023-02-20T10:21:20;30.70;;;18.77;;
47659;SDS011;33403;43.608;1.458;2023-02-20T10:23:50;26.10;;;18.10;;
47659;SDS011;33403;43.608;1.458;2023-02-20T10:28:42;26.92;;;17.45;;
47659;SDS011;33403;43.608;1.458;2023-02-20T10:31:24;25.83;;;18.27;;
47659;SDS011;33403;43.608;1.458;2023-02-20T10:33:56;28.53;;;18.53;;
47659;SDS011;33403;43.608;1.458;2023-02-20T10:36:25;26.53;;;19.37;;
47659;SDS011;33403;43.608;1.458;2023-02-20T10:39:01;28.42;;;19.25;;
47659;SDS011;33403;43.608;1.458;2023-02-20T10:41:31;27.17;;;19.23;;
47659;SDS011;33403;43.608;1.458;2023-02-20T10:46:32;28.77;;;19.02;;
47659;SDS011;33403;43.608;1.458;2023-02-20T10:48:59;26.25;;;18.83;;
47659;SDS011;33403;43.608;1.458;2023-02-20T10:51:33;23.92;;;18.35;;
47659;SDS011;33403;43.608;1.458;2023-02-20T10:54:02;27.38;;;18.25;;
47659;SDS011;33403;43.608;1.458;2023-02-20T10:56:31;28.00;;;19.40;;
47659;SDS011;33403;43.608;1.458;2023-02-20T11:01:44;26.60;;;17.92;;
47659;SDS011;33403;43.608;1.458;2023-02-20T11:04:14;26.55;;;17.95;;
47659;SDS011;33403;43.608;1.458;2023-02-20T11:06:46;26.35;;;19.00;;
47659;SDS011;33403;43.608;1.458;2023-02-20T11:09:14;28.23;;;19.25;;
47659;SDS011;33403;43.608;1.458;2023-02-20T11:11:42;30.85;;;18.83;;
47659;SDS011;33403;43.608;1.458;2023-02-20T11:14:13;25.92;;;18.30;;
47659;SDS011;33403;43.608;1.458;2023-02-20T11:16:43;25.65;;;17.42;;
47659;SDS011;33403;43.608;1.458;2023-02-20T11:19:12;23.63;;;16.13;;
47659;SDS011;33403;43.608;1.458;2023-02-20T11:21:41;21.00;;;15.07;;
47659;SDS011;33403;43.608;1.458;2023-02-20T11:24:31;18.73;;;14.65;;
47659;SDS011;33403;43.608;1.458;2023-02-20T11:27:00;17.08;;;13.65;;
47659;SDS011;33403;43.608;1.458;2023-02-20T11:29:30;16.08;;;13.05;;
47659;SDS011;33403;43.608;1.458;2023-02-20T11:32:13;16.02;;;12.73;;
47659;SDS011;33403;43.608;1.458;2023-02-20T11:34:40;19.73;;;12.70;;
47659;SDS011;33403;43.608;1.458;2023-02-20T11:37:06;13.35;;;11.23;;
47659;SDS011;33403;43.608;1.458;2023-02-20T11:39:32;11.30;;;9.38;;
47659;SDS011;33403;43.608;1.458;2023-02-20T11:42:06;11.18;;;9.02;;
47659;SDS011;33403;43.608;1.458;2023-02-20T11:44:36;13.43;;;9.60;;
47659;SDS011;33403;43.608;1.458;2023-02-20T11:47:09;14.32;;;10.52;;
47659;SDS011;33403;43.608;1.458;2023-02-20T11:49:35;15.30;;;11.25;;
47659;SDS011;33403;43.608;1.458;2023-02-20T11:52:21;12.75;;;10.25;;
47659;SDS011;33403;43.608;1.458;2023-02-20T11:55:07;10.38;;;8.07;;
47659;SDS011;33403;43.608;1.458;2023-02-20T11:57:33;11.68;;;8.57;;
47659;SDS011;33403;43.608;1.458;2023-02-20T12:00:11;11.05;;;9.00;;
47659;SDS011;33403;43.608;1.458;2023-02-20T12:05:14;14.43;;;10.93;;
47659;SDS011;33403;43.608;1.458;2023-02-20T12:07:41;10.65;;;9.02;;
47659;SDS011;33403;43.608;1.458;2023-02-20T12:12:49;13.13;;;10.63;;
47659;SDS011;33403;43.608;1.458;2023-02-20T12:15:17;14.48;;;10.85;;
47659;SDS011;33403;43.608;1.458;2023-02-20T12:20:30;13.32;;;10.40;;
47659;SDS011;33403;43.608;1.458;2023-02-20T12:38:39;10.98;;;8.57;;
47659;SDS011;33403;43.608;1.458;2023-02-20T12:43:38;6.05;;;5.45;;
47659;SDS011;33403;43.608;1.458;2023-02-20T12:46:15;6.20;;;5.25;;
47659;SDS011;33403;43.608;1.458;2023-02-20T12:51:31;6.18;;;5.13;;
47659;SDS011;33403;43.608;1.458;2023-02-20T13:01:28;8.23;;;6.75;;
47659;SDS011;33403;43.608;1.458;2023-02-20T13:04:02;5.18;;;4.65;;
47659;SDS011;33403;43.608;1.458;2023-02-20T13:06:32;4.97;;;4.30;;
47659;SDS011;33403;43.608;1.458;2023-02-20T13:11:40;8.25;;;4.55;;
47659;SDS011;33403;43.608;1.458;2023-02-20T13:16:57;4.55;;;4.07;;
47659;SDS011;33403;43.608;1.458;2023-02-20T13:19:29;5.90;;;3.95;;
47659;SDS011;33403;43.608;1.458;2023-02-20T13:21:58;4.47;;;3.97;;
47659;SDS011;33403;43.608;1.458;2023-02-20T13:24:29;4.90;;;4.05;;
47659;SDS011;33403;43.608;1.458;2023-02-20T13:26:56;4.15;;;3.70;;
47659;SDS011;33403;43.608;1.458;2023-02-20T13:29:27;4.53;;;4.07;;
47659;SDS011;33403;43.608;1.458;2023-02-20T13:32:00;4.53;;;3.85;;
47659;SDS011;33403;43.608;1.458;2023-02-20T13:34:33;6.32;;;3.50;;
47659;SDS011;33403;43.608;1.458;2023-02-20T13:37:00;6.28;;;3.50;;
47659;SDS011;33403;43.608;1.458;2023-02-20T13:39:37;3.53;;;3.20;;
47659;SDS011;33403;43.608;1.458;2023-02-20T13:42:07;4.53;;;3.13;;
47659;SDS011;33403;43.608;1.458;2023-02-20T13:44:49;5.05;;;3.33;;
47659;SDS011;33403;43.608;1.458;2023-02-20T13:57:48;4.50;;;2.92;;
47659;SDS011;33403;43.608;1.458;2023-02-20T14:00:20;4.80;;;3.50;;
47659;SDS011;33403;43.608;1.458;2023-02-20T14:02:48;3.00;;;2.75;;
47659;SDS011;33403;43.608;1.458;2023-02-20T14:05:18;4.00;;;3.25;;
47659;SDS011;33403;43.608;1.458;2023-02-20T14:07:45;3.50;;;3.17;;
47659;SDS011;33403;43.608;1.458;2023-02-20T14:12:40;3.30;;;2.88;;
47659;SDS011;33403;43.608;1.458;2023-02-20T14:15:07;3.40;;;3.10;;
47659;SDS011;33403;43.608;1.458;2023-02-20T14:17:33;3.70;;;3.25;;
47659;SDS011;33403;43.608;1.458;2023-02-20T14:20:05;3.50;;;3.20;;
47659;SDS011;33403;43.608;1.458;2023-02-20T14:22:33;4.65;;;3.70;;
47659;SDS011;33403;43.608;1.458;2023-02-20T14:25:17;3.95;;;3.55;;
47659;SDS011;33403;43.608;1.458;2023-02-20T14:27:43;4.22;;;3.70;;
47659;SDS011;33403;43.608;1.458;2023-02-20T14:32:43;8.85;;;3.10;;
47659;SDS011;33403;43.608;1.458;2023-02-20T14:35:12;3.88;;;3.35;;
47659;SDS011;33403;43.608;1.458;2023-02-20T14:42:59;5.05;;;3.10;;
47659;SDS011;33403;43.608;1.458;2023-02-20T14:45:26;3.72;;;2.78;;
47659;SDS011;33403;43.608;1.458;2023-02-20T14:47:56;4.45;;;3.08;;
47659;SDS011;33403;43.608;1.458;2023-02-20T14:55:36;3.70;;;3.20;;
47659;SDS011;33403;43.608;1.458;2023-02-20T14:58:06;4.07;;;2.92;;
47659;SDS011;33403;43.608;1.458;2023-02-20T15:00:35;3.80;;;3.10;;
47659;SDS011;33403;43.608;1.458;2023-02-20T15:03:05;3.67;;;3.17;;
47659;SDS011;33403;43.608;1.458;2023-02-20T15:05:32;5.07;;;3.38;;
47659;SDS011;33403;43.608;1.458;2023-02-20T15:08:02;3.83;;;3.22;;
47659;SDS011;33403;43.608;1.458;2023-02-20T15:10:32;5.43;;;3.60;;
47659;SDS011;33403;43.608;1.458;2023-02-20T15:13:02;3.40;;;3.10;;
47659;SDS011;33403;43.608;1.458;2023-02-20T15:15:34;4.13;;;3.30;;
47659;SDS011;33403;43.608;1.458;2023-02-20T15:18:04;4.28;;;3.45;;
47659;SDS011;33403;43.608;1.458;2023-02-20T15:23:07;7.85;;;4.47;;
47659;SDS011;33403;43.608;1.458;2023-02-20T15:25:33;6.72;;;4.03;;
47659;SDS011;33403;43.608;1.458;2023-02-20T15:28:06;5.32;;;4.00;;
47659;SDS011;33403;43.608;1.458;2023-02-20T15:30:33;4.55;;;3.97;;
47659;SDS011;33403;43.608;1.458;2023-02-20T15:32:59;6.20;;;4.20;;
47659;SDS011;33403;43.608;1.458;2023-02-20T15:35:29;5.55;;;4.50;;
47659;SDS011;33403;43.608;1.458;2023-02-20T15:37:57;5.32;;;4.15;;
47659;SDS011;33403;43.608;1.458;2023-02-20T15:40:26;5.68;;;3.95;;
47659;SDS011;33403;43.608;1.458;2023-02-20T15:42:52;5.78;;;3.40;;
47659;SDS011;33403;43.608;1.458;2023-02-20T15:45:22;3.97;;;2.90;;
47659;SDS011;33403;43.608;1.458;2023-02-20T15:47:49;4.32;;;2.30;;
47659;SDS011;33403;43.608;1.458;2023-02-20T15:50:15;3.55;;;2.10;;
47659;SDS011;33403;43.608;1.458;2023-02-20T15:52:41;2.80;;;2.40;;
47659;SDS011;33403;43.608;1.458;2023-02-20T15:55:09;2.80;;;2.20;;
47659;SDS011;33403;43.608;1.458;2023-02-20T15:57:41;5.07;;;2.47;;
47659;SDS011;33403;43.608;1.458;2023-02-20T16:00:09;2.40;;;2.20;;
47659;SDS011;33403;43.608;1.458;2023-02-20T16:02:38;4.28;;;2.33;;
47659;SDS011;33403;43.608;1.458;2023-02-20T16:05:04;5.25;;;2.53;;
47659;SDS011;33403;43.608;1.458;2023-02-20T16:07:30;4.32;;;2.72;;
47659;SDS011;33403;43.608;1.458;2023-02-20T16:09:56;4.55;;;2.50;;
47659;SDS011;33403;43.608;1.458;2023-02-20T16:12:23;3.00;;;2.40;;
47659;SDS011;33403;43.608;1.458;2023-02-20T16:14:51;2.75;;;2.25;;
47659;SDS011;33403;43.608;1.458;2023-02-20T16:17:25;3.38;;;2.53;;
47659;SDS011;33403;43.608;1.458;2023-02-20T16:19:51;3.47;;;2.45;;
47659;SDS011;33403;43.608;1.458;2023-02-20T16:22:17;2.70;;;2.13;;
47659;SDS011;33403;43.608;1.458;2023-02-20T16:24:43;3.47;;;2.17;;
47659;SDS011;33403;43.608;1.458;2023-02-20T16:27:14;3.67;;;2.42;;
47659;SDS011;33403;43.608;1.458;2023-02-20T16:29:43;3.90;;;2.22;;
47659;SDS011;33403;43.608;1.458;2023-02-20T16:34:41;4.95;;;2.20;;
47659;SDS011;33403;43.608;1.458;2023-02-20T16:37:08;3.00;;;2.08;;
47659;SDS011;33403;43.608;1.458;2023-02-20T16:39:35;2.88;;;2.25;;
47659;SDS011;33403;43.608;1.458;2023-02-20T16:42:01;5.43;;;2.90;;